sensor_id;sensor_type;location;lat;lon;timestamp;pressure;altitude;pressure_sealevel;temperature;humidity
47761;BME280;33524;55.434;38.520;2022-09-13T00:01:13;100340.50;;;8.14;72.58
47761;BME280;33524;55.434;38.520;2022-09-13T00:03:41;100340.47;;;8.28;71.26
47761;BME280;33524;55.434;38.520;2022-09-13T00:06:12;100350.03;;;8.44;68.66
47761;BME280;33524;55.434;38.520;2022-09-13T00:08:40;100335.06;;;8.32;69.42
47761;BME280;33524;55.434;38.520;2022-09-13T00:11:24;100338.59;;;8.31;69.89
47761;BME280;33524;55.434;38.520;2022-09-13T00:13:53;100332.09;;;8.09;71.70
47761;BME280;33524;55.434;38.520;2022-09-13T00:16:24;100331.94;;;7.98;72.39
47761;BME280;33524;55.434;38.520;2022-09-13T00:18:53;100334.53;;;8.12;71.97
47761;BME280;33524;55.434;38.520;2022-09-13T00:21:23;100331.09;;;7.97;72.41
47761;BME280;33524;55.434;38.520;2022-09-13T00:23:52;100333.25;;;8.05;71.62
47761;BME280;33524;55.434;38.520;2022-09-13T00:26:26;100319.88;;;7.95;72.73
47761;BME280;33524;55.434;38.520;2022-09-13T00:28:56;100330.16;;;8.13;70.60
47761;BME280;33524;55.434;38.520;2022-09-13T00:31:26;100325.16;;;8.08;71.59
47761;BME280;33524;55.434;38.520;2022-09-13T00:33:57;100331.56;;;7.89;72.56
47761;BME280;33524;55.434;38.520;2022-09-13T00:36:24;100329.72;;;7.77;74.69
47761;BME280;33524;55.434;38.520;2022-09-13T00:38:52;100325.94;;;7.96;71.16
47761;BME280;33524;55.434;38.520;2022-09-13T00:41:21;100324.72;;;8.01;70.30
47761;BME280;33524;55.434;38.520;2022-09-13T00:43:51;100319.34;;;7.61;74.19
47761;BME280;33524;55.434;38.520;2022-09-13T00:46:40;100313.47;;;7.72;71.39
47761;BME280;33524;55.434;38.520;2022-09-13T00:51:49;100330.56;;;7.63;71.80
47761;BME280;33524;55.434;38.520;2022-09-13T00:54:22;100328.03;;;7.62;70.85
47761;BME280;33524;55.434;38.520;2022-09-13T00:56:54;100339.53;;;7.74;69.72
47761;BME280;33524;55.434;38.520;2022-09-13T01:02:21;100340.09;;;7.79;68.71
47761;BME280;33524;55.434;38.520;2022-09-13T01:04:49;100341.00;;;7.20;74.52
47761;BME280;33524;55.434;38.520;2022-09-13T01:07:17;100335.09;;;7.17;72.68
47761;BME280;33524;55.434;38.520;2022-09-13T01:09:48;100332.66;;;6.99;73.01
47761;BME280;33524;55.434;38.520;2022-09-13T01:13:18;100334.53;;;6.97;73.73
47761;BME280;33524;55.434;38.520;2022-09-13T01:15:26;100328.25;;;7.00;72.59
47761;BME280;33524;55.434;38.520;2022-09-13T01:17:55;100334.91;;;6.75;74.70
47761;BME280;33524;55.434;38.520;2022-09-13T01:23:39;100331.47;;;6.29;77.85
47761;BME280;33524;55.434;38.520;2022-09-13T01:29:34;100335.16;;;6.09;81.25
47761;BME280;33524;55.434;38.520;2022-09-13T01:47:22;100337.50;;;6.13;76.48
47761;BME280;33524;55.434;38.520;2022-09-13T01:50:22;100335.44;;;5.86;79.70
47761;BME280;33524;55.434;38.520;2022-09-13T01:53:19;100334.25;;;5.76;80.92
47761;BME280;33524;55.434;38.520;2022-09-13T01:55:57;100326.84;;;5.84;79.50
47761;BME280;33524;55.434;38.520;2022-09-13T01:58:47;100327.44;;;5.74;81.21
47761;BME280;33524;55.434;38.520;2022-09-13T02:01:29;100322.09;;;5.59;81.09
47761;BME280;33524;55.434;38.520;2022-09-13T02:04:18;100323.03;;;5.58;81.78
47761;BME280;33524;55.434;38.520;2022-09-13T02:07:01;100324.28;;;5.51;81.81
47761;BME280;33524;55.434;38.520;2022-09-13T02:09:36;100312.69;;;5.57;79.74
47761;BME280;33524;55.434;38.520;2022-09-13T02:12:19;100317.44;;;5.82;77.01
47761;BME280;33524;55.434;38.520;2022-09-13T02:14:57;100317.38;;;5.50;79.89
47761;BME280;33524;55.434;38.520;2022-09-13T02:17:43;100306.22;;;5.31;83.32
47761;BME280;33524;55.434;38.520;2022-09-13T02:20:22;100312.72;;;5.39;82.29
47761;BME280;33524;55.434;38.520;2022-09-13T02:22:56;100313.78;;;5.35;82.79
47761;BME280;33524;55.434;38.520;2022-09-13T02:25:27;100317.16;;;5.37;81.33
47761;BME280;33524;55.434;38.520;2022-09-13T02:28:00;100317.28;;;5.52;80.04
47761;BME280;33524;55.434;38.520;2022-09-13T02:30:30;100313.16;;;5.47;80.88
47761;BME280;33524;55.434;38.520;2022-09-13T02:33:04;100313.41;;;5.43;80.92
47761;BME280;33524;55.434;38.520;2022-09-13T02:35:53;100318.59;;;5.60;78.00
47761;BME280;33524;55.434;38.520;2022-09-13T02:38:46;100309.13;;;5.58;78.16
47761;BME280;33524;55.434;38.520;2022-09-13T02:44:20;100303.72;;;5.45;80.63
47761;BME280;33524;55.434;38.520;2022-09-13T02:50:10;100314.34;;;5.58;78.53
47761;BME280;33524;55.434;38.520;2022-09-13T02:53:41;100311.47;;;5.46;82.56
47761;BME280;33524;55.434;38.520;2022-09-13T02:55:50;100309.13;;;5.42;82.19
47761;BME280;33524;55.434;38.520;2022-09-13T02:58:46;100312.81;;;5.38;85.41
47761;BME280;33524;55.434;38.520;2022-09-13T03:01:18;100306.59;;;5.40;86.02
47761;BME280;33524;55.434;38.520;2022-09-13T03:03:48;100299.19;;;5.49;85.34
47761;BME280;33524;55.434;38.520;2022-09-13T03:06:23;100295.69;;;5.65;81.85
47761;BME280;33524;55.434;38.520;2022-09-13T03:08:52;100303.44;;;5.67;84.93
47761;BME280;33524;55.434;38.520;2022-09-13T03:17:17;100297.94;;;6.05;80.50
47761;BME280;33524;55.434;38.520;2022-09-13T03:20:11;100293.53;;;6.05;79.21
47761;BME280;33524;55.434;38.520;2022-09-13T03:26:17;100290.59;;;6.28;80.11
47761;BME280;33524;55.434;38.520;2022-09-13T03:31:36;100286.59;;;6.36;79.53
47761;BME280;33524;55.434;38.520;2022-09-13T03:34:51;100280.47;;;6.37;77.13
47761;BME280;33524;55.434;38.520;2022-09-13T03:40:09;100276.44;;;6.32;81.71
47761;BME280;33524;55.434;38.520;2022-09-13T03:42:52;100275.03;;;6.56;75.32
47761;BME280;33524;55.434;38.520;2022-09-13T03:45:27;100277.25;;;6.48;79.10
47761;BME280;33524;55.434;38.520;2022-09-13T03:47:57;100276.31;;;6.49;79.36
47761;BME280;33524;55.434;38.520;2022-09-13T03:50:26;100282.59;;;6.61;75.66
47761;BME280;33524;55.434;38.520;2022-09-13T03:53:00;100280.66;;;6.64;77.91
47761;BME280;33524;55.434;38.520;2022-09-13T03:55:31;100284.53;;;6.57;77.55
47761;BME280;33524;55.434;38.520;2022-09-13T03:58:01;100286.62;;;6.66;74.33
47761;BME280;33524;55.434;38.520;2022-09-13T04:00:29;100283.31;;;6.79;73.53
47761;BME280;33524;55.434;38.520;2022-09-13T04:02:57;100291.72;;;6.84;74.17
47761;BME280;33524;55.434;38.520;2022-09-13T04:05:25;100287.63;;;6.94;72.96
47761;BME280;33524;55.434;38.520;2022-09-13T04:07:53;100286.72;;;7.10;71.97
47761;BME280;33524;55.434;38.520;2022-09-13T04:10:21;100285.63;;;7.14;71.27
47761;BME280;33524;55.434;38.520;2022-09-13T04:12:50;100283.00;;;7.14;72.05
47761;BME280;33524;55.434;38.520;2022-09-13T04:15:20;100284.13;;;7.24;71.63
47761;BME280;33524;55.434;38.520;2022-09-13T04:17:48;100281.03;;;7.17;73.67
47761;BME280;33524;55.434;38.520;2022-09-13T04:20:19;100274.19;;;7.15;75.52
47761;BME280;33524;55.434;38.520;2022-09-13T04:22:54;100272.16;;;7.20;76.20
47761;BME280;33524;55.434;38.520;2022-09-13T04:25:23;100284.69;;;7.43;72.09
47761;BME280;33524;55.434;38.520;2022-09-13T04:27:54;100290.50;;;7.48;71.85
47761;BME280;33524;55.434;38.520;2022-09-13T04:30:23;100278.69;;;7.41;76.36
47761;BME280;33524;55.434;38.520;2022-09-13T04:32:50;100290.50;;;7.48;76.86
47761;BME280;33524;55.434;38.520;2022-09-13T04:35:18;100293.56;;;7.55;76.32
47761;BME280;33524;55.434;38.520;2022-09-13T04:37:46;100296.53;;;7.63;75.89
47761;BME280;33524;55.434;38.520;2022-09-13T04:40:14;100302.91;;;7.74;74.46
47761;BME280;33524;55.434;38.520;2022-09-13T04:42:45;100295.66;;;7.92;72.15
47761;BME280;33524;55.434;38.520;2022-09-13T04:45:13;100294.34;;;7.99;69.72
47761;BME280;33524;55.434;38.520;2022-09-13T04:47:41;100295.81;;;8.03;71.78
47761;BME280;33524;55.434;38.520;2022-09-13T04:50:09;100288.41;;;8.09;72.03
47761;BME280;33524;55.434;38.520;2022-09-13T04:52:37;100292.44;;;8.15;69.34
47761;BME280;33524;55.434;38.520;2022-09-13T04:55:05;100290.56;;;8.17;69.89
47761;BME280;33524;55.434;38.520;2022-09-13T04:57:33;100287.94;;;8.17;73.22
47761;BME280;33524;55.434;38.520;2022-09-13T05:00:03;100287.09;;;8.17;73.63
47761;BME280;33524;55.434;38.520;2022-09-13T05:02:31;100287.84;;;8.19;71.80
47761;BME280;33524;55.434;38.520;2022-09-13T05:04:59;100269.78;;;8.14;72.93
47761;BME280;33524;55.434;38.520;2022-09-13T05:07:27;100282.94;;;8.27;69.42
47761;BME280;33524;55.434;38.520;2022-09-13T05:09:54;100285.88;;;8.08;74.66
47761;BME280;33524;55.434;38.520;2022-09-13T05:12:22;100288.69;;;8.19;70.98
47761;BME280;33524;55.434;38.520;2022-09-13T05:14:50;100292.34;;;8.17;72.63
47761;BME280;33524;55.434;38.520;2022-09-13T05:17:18;100290.69;;;8.28;71.57
47761;BME280;33524;55.434;38.520;2022-09-13T05:19:47;100291.63;;;8.42;69.50
47761;BME280;33524;55.434;38.520;2022-09-13T05:22:16;100294.97;;;8.44;72.66
47761;BME280;33524;55.434;38.520;2022-09-13T05:24:44;100289.34;;;8.50;69.29
47761;BME280;33524;55.434;38.520;2022-09-13T05:27:14;100291.13;;;8.50;71.18
47761;BME280;33524;55.434;38.520;2022-09-13T05:29:42;100287.06;;;8.58;72.97
47761;BME280;33524;55.434;38.520;2022-09-13T05:32:10;100289.47;;;8.61;70.97
47761;BME280;33524;55.434;38.520;2022-09-13T05:34:38;100297.25;;;8.76;69.18
47761;BME280;33524;55.434;38.520;2022-09-13T05:37:06;100289.31;;;8.90;70.27
47761;BME280;33524;55.434;38.520;2022-09-13T05:39:34;100289.69;;;8.71;71.79
47761;BME280;33524;55.434;38.520;2022-09-13T05:42:23;100289.22;;;8.92;70.61
47761;BME280;33524;55.434;38.520;2022-09-13T05:44:51;100281.22;;;8.80;73.69
47761;BME280;33524;55.434;38.520;2022-09-13T05:47:19;100285.28;;;8.72;73.89
47761;BME280;33524;55.434;38.520;2022-09-13T05:49:47;100282.41;;;8.89;72.74
47761;BME280;33524;55.434;38.520;2022-09-13T05:52:34;100282.81;;;8.96;73.07
47761;BME280;33524;55.434;38.520;2022-09-13T05:55:03;100275.47;;;9.01;71.83
47761;BME280;33524;55.434;38.520;2022-09-13T05:57:33;100269.59;;;9.23;70.25
47761;BME280;33524;55.434;38.520;2022-09-13T06:00:03;100273.56;;;9.54;69.56
47761;BME280;33524;55.434;38.520;2022-09-13T06:02:38;100271.84;;;9.66;68.03
47761;BME280;33524;55.434;38.520;2022-09-13T06:05:08;100265.75;;;9.78;68.66
47761;BME280;33524;55.434;38.520;2022-09-13T06:07:40;100272.06;;;9.76;70.75
47761;BME280;33524;55.434;38.520;2022-09-13T06:10:09;100264.22;;;9.87;68.92
47761;BME280;33524;55.434;38.520;2022-09-13T06:12:37;100276.09;;;10.17;67.25
47761;BME280;33524;55.434;38.520;2022-09-13T06:15:06;100270.19;;;10.26;67.60
47761;BME280;33524;55.434;38.520;2022-09-13T06:17:34;100254.37;;;10.39;66.67
47761;BME280;33524;55.434;38.520;2022-09-13T06:20:03;100240.81;;;10.56;65.46
47761;BME280;33524;55.434;38.520;2022-09-13T06:22:49;100252.00;;;10.82;64.89
47761;BME280;33524;55.434;38.520;2022-09-13T06:25:17;100250.47;;;10.91;65.48
47761;BME280;33524;55.434;38.520;2022-09-13T06:27:44;100243.06;;;10.96;64.98
47761;BME280;33524;55.434;38.520;2022-09-13T06:30:13;100246.41;;;11.09;64.68
47761;BME280;33524;55.434;38.520;2022-09-13T06:32:42;100236.25;;;11.05;65.43
47761;BME280;33524;55.434;38.520;2022-09-13T06:35:09;100248.22;;;11.09;65.18
47761;BME280;33524;55.434;38.520;2022-09-13T06:37:38;100249.09;;;11.43;64.13
47761;BME280;33524;55.434;38.520;2022-09-13T06:40:06;100246.16;;;11.80;62.87
47761;BME280;33524;55.434;38.520;2022-09-13T06:42:35;100239.50;;;12.20;61.15
47761;BME280;33524;55.434;38.520;2022-09-13T06:45:04;100238.81;;;12.39;60.98
47761;BME280;33524;55.434;38.520;2022-09-13T06:47:32;100241.16;;;12.53;60.91
47761;BME280;33524;55.434;38.520;2022-09-13T06:50:00;100236.13;;;12.71;60.26
47761;BME280;33524;55.434;38.520;2022-09-13T06:52:29;100242.28;;;13.54;58.03
47761;BME280;33524;55.434;38.520;2022-09-13T06:54:57;100246.28;;;13.99;56.71
47761;BME280;33524;55.434;38.520;2022-09-13T06:57:25;100238.78;;;14.13;56.36
47761;BME280;33524;55.434;38.520;2022-09-13T06:59:56;100242.84;;;14.76;54.57
47761;BME280;33524;55.434;38.520;2022-09-13T07:02:24;100241.00;;;14.77;54.89
47761;BME280;33524;55.434;38.520;2022-09-13T07:04:52;100235.81;;;14.95;54.85
47761;BME280;33524;55.434;38.520;2022-09-13T07:07:21;100228.78;;;15.13;54.79
47761;BME280;33524;55.434;38.520;2022-09-13T07:09:48;100223.53;;;15.03;55.21
47761;BME280;33524;55.434;38.520;2022-09-13T07:12:16;100212.81;;;14.95;55.57
47761;BME280;33524;55.434;38.520;2022-09-13T07:14:47;100212.84;;;14.76;54.29
47761;BME280;33524;55.434;38.520;2022-09-13T07:17:15;100205.38;;;14.32;55.61
47761;BME280;33524;55.434;38.520;2022-09-13T07:19:42;100201.53;;;15.30;55.75
47761;BME280;33524;55.434;38.520;2022-09-13T07:22:10;100200.72;;;15.30;53.81
47761;BME280;33524;55.434;38.520;2022-09-13T07:24:38;100196.13;;;15.96;54.51
47761;BME280;33524;55.434;38.520;2022-09-13T07:27:06;100194.22;;;15.42;53.64
47761;BME280;33524;55.434;38.520;2022-09-13T07:29:34;100189.78;;;16.24;54.33
47761;BME280;33524;55.434;38.520;2022-09-13T07:32:02;100179.41;;;16.57;50.30
47761;BME280;33524;55.434;38.520;2022-09-13T07:34:30;100183.25;;;17.15;51.50
47761;BME280;33524;55.434;38.520;2022-09-13T07:36:58;100182.25;;;17.59;50.97
47761;BME280;33524;55.434;38.520;2022-09-13T07:39:26;100178.66;;;17.68;49.52
47761;BME280;33524;55.434;38.520;2022-09-13T07:41:53;100179.28;;;17.62;50.57
47761;BME280;33524;55.434;38.520;2022-09-13T07:44:21;100183.69;;;17.87;50.26
47761;BME280;33524;55.434;38.520;2022-09-13T07:46:49;100180.13;;;17.70;50.15
47761;BME280;33524;55.434;38.520;2022-09-13T07:49:18;100172.63;;;17.58;50.34
47761;BME280;33524;55.434;38.520;2022-09-13T07:51:46;100161.59;;;17.36;47.66
47761;BME280;33524;55.434;38.520;2022-09-13T07:54:18;100170.91;;;17.40;50.94
47761;BME280;33524;55.434;38.520;2022-09-13T07:56:47;100172.44;;;17.43;50.71
47761;BME280;33524;55.434;38.520;2022-09-13T07:59:17;100172.28;;;17.52;48.23
47761;BME280;33524;55.434;38.520;2022-09-13T08:01:50;100171.88;;;17.31;50.57
47761;BME280;33524;55.434;38.520;2022-09-13T08:04:22;100164.81;;;17.13;50.53
47761;BME280;33524;55.434;38.520;2022-09-13T08:06:50;100159.94;;;17.01;49.49
47761;BME280;33524;55.434;38.520;2022-09-13T08:09:19;100164.47;;;17.08;51.11
47761;BME280;33524;55.434;38.520;2022-09-13T08:11:49;100166.34;;;16.64;51.05
47761;BME280;33524;55.434;38.520;2022-09-13T08:14:21;100175.41;;;16.53;52.51
47761;BME280;33524;55.434;38.520;2022-09-13T08:16:49;100171.19;;;16.42;53.07
47761;BME280;33524;55.434;38.520;2022-09-13T08:19:18;100159.81;;;16.50;52.95
47761;BME280;33524;55.434;38.520;2022-09-13T08:21:46;100178.31;;;16.42;52.92
47761;BME280;33524;55.434;38.520;2022-09-13T08:24:19;100170.38;;;16.24;53.20
47761;BME280;33524;55.434;38.520;2022-09-13T08:27:08;100170.19;;;16.43;52.24
47761;BME280;33524;55.434;38.520;2022-09-13T08:29:35;100163.09;;;16.08;49.32
47761;BME280;33524;55.434;38.520;2022-09-13T08:32:03;100160.28;;;16.27;52.95
47761;BME280;33524;55.434;38.520;2022-09-13T08:34:31;100153.47;;;16.25;52.44
47761;BME280;33524;55.434;38.520;2022-09-13T08:36:59;100150.56;;;15.64;51.43
47761;BME280;33524;55.434;38.520;2022-09-13T08:39:30;100130.91;;;16.21;51.90
47761;BME280;33524;55.434;38.520;2022-09-13T08:44:46;100143.09;;;15.96;50.30
47761;BME280;33524;55.434;38.520;2022-09-13T08:47:37;100146.00;;;16.02;52.90
47761;BME280;33524;55.434;38.520;2022-09-13T08:50:14;100139.31;;;15.80;51.46
47761;BME280;33524;55.434;38.520;2022-09-13T08:55:49;100142.34;;;15.85;53.90
47761;BME280;33524;55.434;38.520;2022-09-13T09:01:36;100139.50;;;15.51;48.19
47761;BME280;33524;55.434;38.520;2022-09-13T09:09:43;100144.81;;;15.51;48.80
47761;BME280;33524;55.434;38.520;2022-09-13T09:12:18;100138.09;;;15.74;52.31
47761;BME280;33524;55.434;38.520;2022-09-13T09:15:00;100137.03;;;15.85;53.36
47761;BME280;33524;55.434;38.520;2022-09-13T09:17:49;100138.06;;;15.57;51.30
47761;BME280;33524;55.434;38.520;2022-09-13T09:23:20;100124.03;;;15.74;53.79
47761;BME280;33524;55.434;38.520;2022-09-13T09:25:56;100125.34;;;15.60;53.34
47761;BME280;33524;55.434;38.520;2022-09-13T09:28:24;100117.75;;;15.75;52.87
47761;BME280;33524;55.434;38.520;2022-09-13T09:31:04;100111.84;;;15.53;50.08
47761;BME280;33524;55.434;38.520;2022-09-13T09:36:43;100113.38;;;15.38;50.61
47761;BME280;33524;55.434;38.520;2022-09-13T09:39:13;100103.97;;;15.26;52.03
47761;BME280;33524;55.434;38.520;2022-09-13T09:41:43;100110.03;;;15.36;53.16
47761;BME280;33524;55.434;38.520;2022-09-13T09:44:23;100096.50;;;15.11;50.98
47761;BME280;33524;55.434;38.520;2022-09-13T09:46:56;100096.59;;;14.92;50.61
47761;BME280;33524;55.434;38.520;2022-09-13T09:49:40;100093.31;;;15.53;52.61
47761;BME280;33524;55.434;38.520;2022-09-13T09:52:34;100091.50;;;15.08;50.69
47761;BME280;33524;55.434;38.520;2022-09-13T09:55:15;100099.44;;;15.36;54.28
47761;BME280;33524;55.434;38.520;2022-09-13T10:00:18;100091.94;;;15.04;51.09
47761;BME280;33524;55.434;38.520;2022-09-13T10:02:48;100096.97;;;15.07;53.55
47761;BME280;33524;55.434;38.520;2022-09-13T10:05:20;100089.66;;;15.37;53.40
47761;BME280;33524;55.434;38.520;2022-09-13T10:07:55;100090.53;;;15.09;51.25
47761;BME280;33524;55.434;38.520;2022-09-13T10:13:06;100079.53;;;15.32;49.38
47761;BME280;33524;55.434;38.520;2022-09-13T10:15:34;100086.62;;;15.49;51.93
47761;BME280;33524;55.434;38.520;2022-09-13T10:18:14;100083.84;;;15.69;52.80
47761;BME280;33524;55.434;38.520;2022-09-13T10:23:45;100076.88;;;15.04;50.80
47761;BME280;33524;55.434;38.520;2022-09-13T10:26:22;100074.47;;;15.74;51.65
47761;BME280;33524;55.434;38.520;2022-09-13T10:28:55;100074.00;;;15.43;52.96
47761;BME280;33524;55.434;38.520;2022-09-13T10:31:32;100075.16;;;15.59;52.82
47761;BME280;33524;55.434;38.520;2022-09-13T10:34:01;100065.66;;;15.38;51.88
47761;BME280;33524;55.434;38.520;2022-09-13T10:36:33;100074.75;;;15.53;52.64
47761;BME280;33524;55.434;38.520;2022-09-13T10:39:20;100077.41;;;15.53;52.27
47761;BME280;33524;55.434;38.520;2022-09-13T10:41:55;100070.41;;;15.17;53.05
47761;BME280;33524;55.434;38.520;2022-09-13T10:47:19;100060.06;;;14.96;50.55
47761;BME280;33524;55.434;38.520;2022-09-13T10:49:57;100063.44;;;14.88;51.32
47761;BME280;33524;55.434;38.520;2022-09-13T10:52:42;100060.09;;;14.86;53.42
47761;BME280;33524;55.434;38.520;2022-09-13T10:57:41;100056.53;;;15.05;52.70
47761;BME280;33524;55.434;38.520;2022-09-13T11:00:18;100047.75;;;14.77;53.11
47761;BME280;33524;55.434;38.520;2022-09-13T11:06:10;100046.56;;;14.61;53.63
47761;BME280;33524;55.434;38.520;2022-09-13T11:11:59;100049.69;;;14.37;53.91
47761;BME280;33524;55.434;38.520;2022-09-13T11:17:42;100038.78;;;14.50;52.83
47761;BME280;33524;55.434;38.520;2022-09-13T11:20:23;100025.38;;;14.24;53.48
47761;BME280;33524;55.434;38.520;2022-09-13T11:37:43;100019.72;;;14.09;53.42
47761;BME280;33524;55.434;38.520;2022-09-13T11:45:46;100011.84;;;13.80;51.93
47761;BME280;33524;55.434;38.520;2022-09-13T12:01:57;100010.28;;;13.97;53.03
47761;BME280;33524;55.434;38.520;2022-09-13T12:04:32;100010.97;;;13.99;52.96
47761;BME280;33524;55.434;38.520;2022-09-13T12:07:05;100007.81;;;13.66;54.32
47761;BME280;33524;55.434;38.520;2022-09-13T12:09:41;99994.31;;;13.69;53.32
47761;BME280;33524;55.434;38.520;2022-09-13T12:12:12;99997.28;;;13.56;54.78
47761;BME280;33524;55.434;38.520;2022-09-13T12:17:43;99978.91;;;13.55;53.37
47761;BME280;33524;55.434;38.520;2022-09-13T12:23:01;99979.72;;;13.45;54.20
47761;BME280;33524;55.434;38.520;2022-09-13T12:25:59;99982.25;;;13.66;54.41
47761;BME280;33524;55.434;38.520;2022-09-13T12:28:41;99973.31;;;13.58;54.30
47761;BME280;33524;55.434;38.520;2022-09-13T12:31:33;99967.78;;;13.70;53.93
47761;BME280;33524;55.434;38.520;2022-09-13T12:34:04;99983.06;;;13.77;53.70
47761;BME280;33524;55.434;38.520;2022-09-13T12:36:56;99962.63;;;13.69;54.01
47761;BME280;33524;55.434;38.520;2022-09-13T12:39:30;99967.50;;;13.44;54.02
47761;BME280;33524;55.434;38.520;2022-09-13T12:42:19;99956.66;;;13.47;53.79
47761;BME280;33524;55.434;38.520;2022-09-13T12:45:31;99949.03;;;13.44;54.12
47761;BME280;33524;55.434;38.520;2022-09-13T12:48:37;99943.88;;;13.33;53.78
47761;BME280;33524;55.434;38.520;2022-09-13T13:05:34;99928.28;;;13.49;54.56
47761;BME280;33524;55.434;38.520;2022-09-13T13:08:27;99926.06;;;13.25;54.89
47761;BME280;33524;55.434;38.520;2022-09-13T13:11:01;99922.88;;;13.41;54.66
47761;BME280;33524;55.434;38.520;2022-09-13T13:13:39;99927.06;;;13.34;54.47
47761;BME280;33524;55.434;38.520;2022-09-13T13:16:30;99921.22;;;13.11;53.98
47761;BME280;33524;55.434;38.520;2022-09-13T13:19:24;99912.16;;;13.52;54.46
47761;BME280;33524;55.434;38.520;2022-09-13T13:21:52;99917.87;;;13.38;54.10
47761;BME280;33524;55.434;38.520;2022-09-13T13:26:52;99922.56;;;13.64;54.25
47761;BME280;33524;55.434;38.520;2022-09-13T13:29:38;99933.53;;;13.69;54.07
47761;BME280;33524;55.434;38.520;2022-09-13T13:32:10;99942.91;;;14.01;53.40
47761;BME280;33524;55.434;38.520;2022-09-13T13:34:44;99946.81;;;13.97;53.46
47761;BME280;33524;55.434;38.520;2022-09-13T13:39:45;99945.19;;;13.86;53.44
47761;BME280;33524;55.434;38.520;2022-09-13T13:42:26;99937.06;;;13.97;53.48
47761;BME280;33524;55.434;38.520;2022-09-13T13:52:35;99943.31;;;13.59;53.51
47761;BME280;33524;55.434;38.520;2022-09-13T13:55:41;99941.78;;;13.56;54.22
47761;BME280;33524;55.434;38.520;2022-09-13T13:58:23;99934.81;;;13.65;53.98
47761;BME280;33524;55.434;38.520;2022-09-13T14:00:53;99938.78;;;13.79;53.53
47761;BME280;33524;55.434;38.520;2022-09-13T14:06:15;99933.50;;;13.79;53.35
47761;BME280;33524;55.434;38.520;2022-09-13T14:08:53;99924.94;;;13.67;53.58
47761;BME280;33524;55.434;38.520;2022-09-13T14:19:51;99923.16;;;13.38;54.70
47761;BME280;33524;55.434;38.520;2022-09-13T14:22:27;99925.53;;;13.31;54.77
47761;BME280;33524;55.434;38.520;2022-09-13T14:24:58;99915.22;;;13.28;54.51
47761;BME280;33524;55.434;38.520;2022-09-13T14:27:40;99915.91;;;13.21;54.74
47761;BME280;33524;55.434;38.520;2022-09-13T14:30:31;99914.25;;;13.20;55.31
47761;BME280;33524;55.434;38.520;2022-09-13T14:33:01;99914.12;;;13.21;55.16
47761;BME280;33524;55.434;38.520;2022-09-13T14:35:35;99906.62;;;13.07;55.68
47761;BME280;33524;55.434;38.520;2022-09-13T14:40:38;99910.50;;;12.74;56.71
47761;BME280;33524;55.434;38.520;2022-09-13T14:43:19;99897.66;;;12.49;57.31
47761;BME280;33524;55.434;38.520;2022-09-13T14:45:54;99901.72;;;12.54;57.46
47761;BME280;33524;55.434;38.520;2022-09-13T14:48:29;99911.66;;;12.30;58.18
47761;BME280;33524;55.434;38.520;2022-09-13T14:51:05;99897.88;;;12.27;58.83
47761;BME280;33524;55.434;38.520;2022-09-13T14:53:36;99899.78;;;12.15;58.94
47761;BME280;33524;55.434;38.520;2022-09-13T14:56:12;99899.19;;;12.02;60.00
47761;BME280;33524;55.434;38.520;2022-09-13T14:58:52;99901.44;;;11.85;61.14
47761;BME280;33524;55.434;38.520;2022-09-13T15:01:39;99900.47;;;11.86;60.18
47761;BME280;33524;55.434;38.520;2022-09-13T15:04:07;99893.06;;;11.70;61.15
47761;BME280;33524;55.434;38.520;2022-09-13T15:06:37;99895.00;;;11.68;61.79
47761;BME280;33524;55.434;38.520;2022-09-13T15:11:41;99886.78;;;11.62;61.37
47761;BME280;33524;55.434;38.520;2022-09-13T15:17:09;99880.44;;;11.43;62.65
47761;BME280;33524;55.434;38.520;2022-09-13T15:22:15;99879.13;;;11.38;63.58
47761;BME280;33524;55.434;38.520;2022-09-13T15:24:51;99876.03;;;11.32;63.24
47761;BME280;33524;55.434;38.520;2022-09-13T15:27:27;99867.78;;;11.37;64.00
47761;BME280;33524;55.434;38.520;2022-09-13T15:30:02;99872.16;;;11.27;62.88
47761;BME280;33524;55.434;38.520;2022-09-13T15:32:40;99867.91;;;11.15;65.10
47761;BME280;33524;55.434;38.520;2022-09-13T15:35:25;99861.13;;;11.12;64.70
47761;BME280;33524;55.434;38.520;2022-09-13T15:38:00;99858.63;;;10.99;65.11
47761;BME280;33524;55.434;38.520;2022-09-13T15:40:29;99853.84;;;10.83;66.63
47761;BME280;33524;55.434;38.520;2022-09-13T15:43:08;99850.22;;;10.84;67.94
47761;BME280;33524;55.434;38.520;2022-09-13T15:45:36;99852.06;;;10.73;67.77
47761;BME280;33524;55.434;38.520;2022-09-13T15:48:06;99856.31;;;10.85;66.70
47761;BME280;33524;55.434;38.520;2022-09-13T15:50:34;99858.63;;;10.78;67.88
47761;BME280;33524;55.434;38.520;2022-09-13T15:53:09;99855.87;;;10.80;67.56
47761;BME280;33524;55.434;38.520;2022-09-13T15:55:38;99858.44;;;10.91;64.50
47761;BME280;33524;55.434;38.520;2022-09-13T15:58:08;99854.25;;;10.67;68.69
47761;BME280;33524;55.434;38.520;2022-09-13T16:00:36;99857.72;;;10.89;64.75
47761;BME280;33524;55.434;38.520;2022-09-13T16:03:04;99860.50;;;10.87;67.33
47761;BME280;33524;55.434;38.520;2022-09-13T16:05:32;99850.06;;;10.65;69.72
47761;BME280;33524;55.434;38.520;2022-09-13T16:08:02;99846.34;;;10.67;68.61
47761;BME280;33524;55.434;38.520;2022-09-13T16:10:32;99856.56;;;10.82;66.61
47761;BME280;33524;55.434;38.520;2022-09-13T16:13:00;99850.91;;;10.65;68.90
47761;BME280;33524;55.434;38.520;2022-09-13T16:15:28;99848.72;;;10.70;65.65
47761;BME280;33524;55.434;38.520;2022-09-13T16:17:56;99842.81;;;10.57;68.79
47761;BME280;33524;55.434;38.520;2022-09-13T16:20:24;99844.34;;;10.60;68.64